sensor_id;sensor_type;location;lat;lon;timestamp;P1;durP1;ratioP1;P2;durP2;ratioP2
12308;SDS011;6217;48.150;17.142;2023-10-31T00:02:37;4.53;;;1.60;;
12308;SDS011;6217;48.150;17.142;2023-10-31T00:06:44;3.38;;;1.30;;
12308;SDS011;6217;48.150;17.142;2023-10-31T00:10:50;5.90;;;1.70;;
12308;SDS011;6217;48.150;17.142;2023-10-31T00:14:55;3.83;;;1.33;;
12308;SDS011;6217;48.150;17.142;2023-10-31T00:19:01;8.02;;;1.65;;
12308;SDS011;6217;48.150;17.142;2023-10-31T00:23:07;3.53;;;1.33;;
12308;SDS011;6217;48.150;17.142;2023-10-31T00:27:13;4.85;;;1.50;;
12308;SDS011;6217;48.150;17.142;2023-10-31T00:31:21;3.63;;;1.80;;
12308;SDS011;6217;48.150;17.142;2023-10-31T00:35:26;3.90;;;1.40;;
12308;SDS011;6217;48.150;17.142;2023-10-31T00:39:32;5.88;;;1.77;;
12308;SDS011;6217;48.150;17.142;2023-10-31T00:43:39;3.65;;;1.45;;
12308;SDS011;6217;48.150;17.142;2023-10-31T00:47:45;6.65;;;2.63;;
12308;SDS011;6217;48.150;17.142;2023-10-31T00:51:51;3.63;;;1.60;;
12308;SDS011;6217;48.150;17.142;2023-10-31T00:55:57;2.92;;;1.20;;
12308;SDS011;6217;48.150;17.142;2023-10-31T01:00:03;6.43;;;1.42;;
12308;SDS011;6217;48.150;17.142;2023-10-31T01:04:09;4.45;;;1.90;;
12308;SDS011;6217;48.150;17.142;2023-10-31T01:08:16;4.32;;;1.88;;
12308;SDS011;6217;48.150;17.142;2023-10-31T01:12:22;4.13;;;2.00;;
12308;SDS011;6217;48.150;17.142;2023-10-31T01:16:27;2.20;;;1.50;;
12308;SDS011;6217;48.150;17.142;2023-10-31T01:20:33;6.65;;;1.67;;
12308;SDS011;6217;48.150;17.142;2023-10-31T01:24:39;4.25;;;1.88;;
12308;SDS011;6217;48.150;17.142;2023-10-31T01:28:45;4.43;;;1.60;;
12308;SDS011;6217;48.150;17.142;2023-10-31T01:32:51;6.30;;;1.90;;
12308;SDS011;6217;48.150;17.142;2023-10-31T01:36:57;3.35;;;2.10;;
12308;SDS011;6217;48.150;17.142;2023-10-31T01:41:03;2.70;;;1.73;;
12308;SDS011;6217;48.150;17.142;2023-10-31T01:45:09;3.67;;;2.40;;
12308;SDS011;6217;48.150;17.142;2023-10-31T01:49:15;6.63;;;1.95;;
12308;SDS011;6217;48.150;17.142;2023-10-31T01:53:22;3.13;;;2.00;;
12308;SDS011;6217;48.150;17.142;2023-10-31T01:57:30;5.25;;;2.10;;
12308;SDS011;6217;48.150;17.142;2023-10-31T02:01:37;4.13;;;2.22;;
12308;SDS011;6217;48.150;17.142;2023-10-31T02:05:45;9.07;;;1.63;;
12308;SDS011;6217;48.150;17.142;2023-10-31T02:09:51;6.30;;;2.13;;
12308;SDS011;6217;48.150;17.142;2023-10-31T02:13:57;6.68;;;2.28;;
12308;SDS011;6217;48.150;17.142;2023-10-31T02:18:03;4.57;;;2.97;;
12308;SDS011;6217;48.150;17.142;2023-10-31T02:22:10;8.52;;;2.40;;
12308;SDS011;6217;48.150;17.142;2023-10-31T02:26:16;6.05;;;3.28;;
12308;SDS011;6217;48.150;17.142;2023-10-31T02:30:24;3.25;;;2.30;;
12308;SDS011;6217;48.150;17.142;2023-10-31T02:34:32;6.43;;;2.40;;
12308;SDS011;6217;48.150;17.142;2023-10-31T02:38:39;8.05;;;2.55;;
12308;SDS011;6217;48.150;17.142;2023-10-31T02:42:45;4.32;;;1.98;;
12308;SDS011;6217;48.150;17.142;2023-10-31T02:46:51;6.15;;;2.47;;
12308;SDS011;6217;48.150;17.142;2023-10-31T02:50:57;4.38;;;2.60;;
12308;SDS011;6217;48.150;17.142;2023-10-31T02:55:05;10.77;;;2.63;;
12308;SDS011;6217;48.150;17.142;2023-10-31T02:59:11;5.30;;;2.20;;
12308;SDS011;6217;48.150;17.142;2023-10-31T03:03:17;24.15;;;3.00;;
12308;SDS011;6217;48.150;17.142;2023-10-31T03:07:23;7.57;;;3.03;;
12308;SDS011;6217;48.150;17.142;2023-10-31T03:11:29;7.63;;;2.53;;
12308;SDS011;6217;48.150;17.142;2023-10-31T03:15:35;4.85;;;2.83;;
12308;SDS011;6217;48.150;17.142;2023-10-31T03:19:41;7.75;;;2.85;;
12308;SDS011;6217;48.150;17.142;2023-10-31T03:23:48;7.00;;;2.65;;
12308;SDS011;6217;48.150;17.142;2023-10-31T03:27:55;4.90;;;2.60;;
12308;SDS011;6217;48.150;17.142;2023-10-31T03:32:01;4.97;;;2.60;;
12308;SDS011;6217;48.150;17.142;2023-10-31T03:36:07;6.63;;;3.13;;
12308;SDS011;6217;48.150;17.142;2023-10-31T03:40:14;11.20;;;3.22;;
12308;SDS011;6217;48.150;17.142;2023-10-31T03:44:20;7.22;;;2.78;;
12308;SDS011;6217;48.150;17.142;2023-10-31T03:48:26;6.72;;;3.35;;
12308;SDS011;6217;48.150;17.142;2023-10-31T03:52:32;9.25;;;2.78;;
12308;SDS011;6217;48.150;17.142;2023-10-31T03:56:39;4.50;;;3.28;;
12308;SDS011;6217;48.150;17.142;2023-10-31T04:00:48;7.37;;;3.50;;
12308;SDS011;6217;48.150;17.142;2023-10-31T04:04:55;3.90;;;2.85;;
12308;SDS011;6217;48.150;17.142;2023-10-31T04:09:01;11.20;;;4.40;;
12308;SDS011;6217;48.150;17.142;2023-10-31T04:13:07;7.47;;;4.75;;
12308;SDS011;6217;48.150;17.142;2023-10-31T04:17:13;11.55;;;5.50;;
12308;SDS011;6217;48.150;17.142;2023-10-31T04:21:19;7.63;;;5.57;;
12308;SDS011;6217;48.150;17.142;2023-10-31T04:25:25;10.77;;;4.95;;
12308;SDS011;6217;48.150;17.142;2023-10-31T04:29:32;11.35;;;4.22;;
12308;SDS011;6217;48.150;17.142;2023-10-31T04:33:38;4.65;;;3.55;;
12308;SDS011;6217;48.150;17.142;2023-10-31T04:37:44;5.43;;;3.50;;
12308;SDS011;6217;48.150;17.142;2023-10-31T04:41:49;10.90;;;5.00;;
12308;SDS011;6217;48.150;17.142;2023-10-31T04:45:55;7.78;;;4.60;;
12308;SDS011;6217;48.150;17.142;2023-10-31T04:50:01;7.18;;;3.28;;
12308;SDS011;6217;48.150;17.142;2023-10-31T04:54:07;7.57;;;3.33;;
12308;SDS011;6217;48.150;17.142;2023-10-31T04:58:13;4.97;;;4.18;;
12308;SDS011;6217;48.150;17.142;2023-10-31T05:02:22;5.10;;;3.90;;
12308;SDS011;6217;48.150;17.142;2023-10-31T05:06:28;8.20;;;4.18;;
12308;SDS011;6217;48.150;17.142;2023-10-31T05:10:34;9.32;;;3.67;;
12308;SDS011;6217;48.150;17.142;2023-10-31T05:14:40;9.05;;;4.20;;
12308;SDS011;6217;48.150;17.142;2023-10-31T05:18:46;8.02;;;3.60;;
12308;SDS011;6217;48.150;17.142;2023-10-31T05:22:52;9.05;;;3.88;;
12308;SDS011;6217;48.150;17.142;2023-10-31T05:26:58;5.05;;;4.45;;
12308;SDS011;6217;48.150;17.142;2023-10-31T05:31:04;7.18;;;3.83;;
12308;SDS011;6217;48.150;17.142;2023-10-31T05:35:10;6.50;;;4.20;;
12308;SDS011;6217;48.150;17.142;2023-10-31T05:39:16;9.40;;;3.42;;
12308;SDS011;6217;48.150;17.142;2023-10-31T05:43:22;6.18;;;4.20;;
12308;SDS011;6217;48.150;17.142;2023-10-31T05:47:28;5.50;;;3.30;;
12308;SDS011;6217;48.150;17.142;2023-10-31T05:51:34;8.98;;;4.35;;
12308;SDS011;6217;48.150;17.142;2023-10-31T05:55:40;6.15;;;3.08;;
12308;SDS011;6217;48.150;17.142;2023-10-31T05:59:46;8.18;;;3.42;;
12308;SDS011;6217;48.150;17.142;2023-10-31T06:03:52;9.55;;;5.05;;
12308;SDS011;6217;48.150;17.142;2023-10-31T06:07:58;6.22;;;3.78;;
12308;SDS011;6217;48.150;17.142;2023-10-31T06:12:04;4.80;;;2.65;;
12308;SDS011;6217;48.150;17.142;2023-10-31T06:16:10;5.10;;;1.98;;
12308;SDS011;6217;48.150;17.142;2023-10-31T06:20:16;3.85;;;1.38;;
12308;SDS011;6217;48.150;17.142;2023-10-31T06:24:22;6.05;;;1.73;;
12308;SDS011;6217;48.150;17.142;2023-10-31T06:28:28;2.45;;;1.23;;
12308;SDS011;6217;48.150;17.142;2023-10-31T06:32:34;2.90;;;1.40;;
12308;SDS011;6217;48.150;17.142;2023-10-31T06:36:40;1.20;;;0.93;;
12308;SDS011;6217;48.150;17.142;2023-10-31T06:40:46;1.00;;;0.60;;
12308;SDS011;6217;48.150;17.142;2023-10-31T06:44:52;0.90;;;0.50;;
12308;SDS011;6217;48.150;17.142;2023-10-31T06:48:58;3.00;;;1.27;;
12308;SDS011;6217;48.150;17.142;2023-10-31T06:53:04;0.50;;;0.40;;
12308;SDS011;6217;48.150;17.142;2023-10-31T06:57:10;0.30;;;0.30;;
12308;SDS011;6217;48.150;17.142;2023-10-31T07:01:16;0.70;;;0.40;;
12308;SDS011;6217;48.150;17.142;2023-10-31T07:05:24;0.30;;;0.30;;
12308;SDS011;6217;48.150;17.142;2023-10-31T07:09:30;0.30;;;0.30;;
12308;SDS011;6217;48.150;17.142;2023-10-31T07:13:36;0.30;;;0.30;;
12308;SDS011;6217;48.150;17.142;2023-10-31T07:17:42;0.70;;;0.30;;
12308;SDS011;6217;48.150;17.142;2023-10-31T07:21:48;0.40;;;0.30;;
12308;SDS011;6217;48.150;17.142;2023-10-31T07:25:54;0.30;;;0.30;;
12308;SDS011;6217;48.150;17.142;2023-10-31T07:29:59;0.30;;;0.30;;
12308;SDS011;6217;48.150;17.142;2023-10-31T07:34:05;0.40;;;0.40;;
12308;SDS011;6217;48.150;17.142;2023-10-31T07:38:11;0.70;;;0.45;;
12308;SDS011;6217;48.150;17.142;2023-10-31T07:42:17;0.68;;;0.30;;
12308;SDS011;6217;48.150;17.142;2023-10-31T07:46:23;0.63;;;0.40;;
12308;SDS011;6217;48.150;17.142;2023-10-31T07:50:29;0.73;;;0.40;;
12308;SDS011;6217;48.150;17.142;2023-10-31T07:54:39;1.23;;;0.30;;
12308;SDS011;6217;48.150;17.142;2023-10-31T07:58:45;0.30;;;0.30;;
12308;SDS011;6217;48.150;17.142;2023-10-31T08:02:51;2.47;;;0.55;;
12308;SDS011;6217;48.150;17.142;2023-10-31T08:06:57;2.05;;;0.50;;
12308;SDS011;6217;48.150;17.142;2023-10-31T08:11:03;0.85;;;0.50;;
12308;SDS011;6217;48.150;17.142;2023-10-31T08:15:13;0.40;;;0.40;;
12308;SDS011;6217;48.150;17.142;2023-10-31T08:19:20;1.00;;;0.60;;
12308;SDS011;6217;48.150;17.142;2023-10-31T08:23:26;0.68;;;0.30;;
12308;SDS011;6217;48.150;17.142;2023-10-31T08:27:34;0.30;;;0.30;;
12308;SDS011;6217;48.150;17.142;2023-10-31T08:31:41;0.77;;;0.77;;
12308;SDS011;6217;48.150;17.142;2023-10-31T08:35:48;0.40;;;0.40;;
12308;SDS011;6217;48.150;17.142;2023-10-31T08:39:54;0.73;;;0.40;;
12308;SDS011;6217;48.150;17.142;2023-10-31T08:44:00;0.30;;;0.30;;
12308;SDS011;6217;48.150;17.142;2023-10-31T08:48:08;1.52;;;0.30;;
12308;SDS011;6217;48.150;17.142;2023-10-31T08:52:14;1.85;;;0.30;;
12308;SDS011;6217;48.150;17.142;2023-10-31T08:56:20;0.52;;;0.30;;
12308;SDS011;6217;48.150;17.142;2023-10-31T09:00:26;0.47;;;0.30;;
12308;SDS011;6217;48.150;17.142;2023-10-31T09:04:33;1.67;;;0.40;;
12308;SDS011;6217;48.150;17.142;2023-10-31T09:08:40;1.52;;;0.30;;
12308;SDS011;6217;48.150;17.142;2023-10-31T09:12:46;0.28;;;0.28;;
12308;SDS011;6217;48.150;17.142;2023-10-31T09:16:52;0.20;;;0.20;;
12308;SDS011;6217;48.150;17.142;2023-10-31T09:20:57;0.45;;;0.30;;
12308;SDS011;6217;48.150;17.142;2023-10-31T09:25:04;0.35;;;0.32;;
12308;SDS011;6217;48.150;17.142;2023-10-31T09:29:10;0.80;;;0.50;;
12308;SDS011;6217;48.150;17.142;2023-10-31T09:33:16;0.35;;;0.35;;
12308;SDS011;6217;48.150;17.142;2023-10-31T09:37:22;1.48;;;0.50;;
12308;SDS011;6217;48.150;17.142;2023-10-31T09:41:28;1.00;;;0.40;;
12308;SDS011;6217;48.150;17.142;2023-10-31T09:45:37;0.30;;;0.30;;
12308;SDS011;6217;48.150;17.142;2023-10-31T09:49:43;0.98;;;0.50;;
12308;SDS011;6217;48.150;17.142;2023-10-31T09:53:50;2.70;;;0.82;;
12308;SDS011;6217;48.150;17.142;2023-10-31T09:58:00;4.97;;;0.60;;
12308;SDS011;6217;48.150;17.142;2023-10-31T10:02:06;8.35;;;0.50;;
12308;SDS011;6217;48.150;17.142;2023-10-31T10:06:12;1.98;;;0.45;;
12308;SDS011;6217;48.150;17.142;2023-10-31T10:10:19;0.77;;;0.45;;
12308;SDS011;6217;48.150;17.142;2023-10-31T10:14:25;5.47;;;0.68;;
12308;SDS011;6217;48.150;17.142;2023-10-31T10:18:34;0.40;;;0.40;;
12308;SDS011;6217;48.150;17.142;2023-10-31T10:22:44;3.13;;;0.50;;
12308;SDS011;6217;48.150;17.142;2023-10-31T10:26:51;0.45;;;0.40;;
12308;SDS011;6217;48.150;17.142;2023-10-31T10:30:57;0.63;;;0.50;;
12308;SDS011;6217;48.150;17.142;2023-10-31T10:35:03;0.52;;;0.40;;
12308;SDS011;6217;48.150;17.142;2023-10-31T10:39:11;1.40;;;0.60;;
12308;SDS011;6217;48.150;17.142;2023-10-31T10:43:25;0.68;;;0.60;;
12308;SDS011;6217;48.150;17.142;2023-10-31T10:47:32;1.50;;;0.60;;
12308;SDS011;6217;48.150;17.142;2023-10-31T10:51:50;1.90;;;0.60;;
12308;SDS011;6217;48.150;17.142;2023-10-31T10:56:03;2.45;;;0.63;;
12308;SDS011;6217;48.150;17.142;2023-10-31T11:00:21;0.82;;;0.70;;
12308;SDS011;6217;48.150;17.142;2023-10-31T11:04:30;1.27;;;0.70;;
12308;SDS011;6217;48.150;17.142;2023-10-31T11:08:37;1.40;;;0.70;;
12308;SDS011;6217;48.150;17.142;2023-10-31T11:12:43;2.58;;;1.05;;
12308;SDS011;6217;48.150;17.142;2023-10-31T11:16:54;2.55;;;0.90;;
12308;SDS011;6217;48.150;17.142;2023-10-31T11:21:05;1.15;;;0.68;;
12308;SDS011;6217;48.150;17.142;2023-10-31T11:25:14;2.97;;;0.80;;
12308;SDS011;6217;48.150;17.142;2023-10-31T11:29:30;2.35;;;1.00;;
12308;SDS011;6217;48.150;17.142;2023-10-31T11:33:38;6.03;;;1.08;;
12308;SDS011;6217;48.150;17.142;2023-10-31T11:37:47;2.08;;;0.60;;
12308;SDS011;6217;48.150;17.142;2023-10-31T11:41:55;0.95;;;0.85;;
12308;SDS011;6217;48.150;17.142;2023-10-31T11:46:01;1.60;;;0.77;;
12308;SDS011;6217;48.150;17.142;2023-10-31T11:50:07;1.42;;;0.80;;
12308;SDS011;6217;48.150;17.142;2023-10-31T11:54:14;2.25;;;0.80;;
12308;SDS011;6217;48.150;17.142;2023-10-31T11:58:23;1.40;;;0.70;;
12308;SDS011;6217;48.150;17.142;2023-10-31T12:02:30;3.55;;;0.63;;
12308;SDS011;6217;48.150;17.142;2023-10-31T12:06:36;0.60;;;0.57;;
12308;SDS011;6217;48.150;17.142;2023-10-31T12:10:42;1.95;;;0.47;;
12308;SDS011;6217;48.150;17.142;2023-10-31T12:14:48;0.60;;;0.60;;
12308;SDS011;6217;48.150;17.142;2023-10-31T12:18:58;0.50;;;0.50;;
12308;SDS011;6217;48.150;17.142;2023-10-31T12:23:08;0.40;;;0.40;;
12308;SDS011;6217;48.150;17.142;2023-10-31T12:27:14;0.70;;;0.47;;
12308;SDS011;6217;48.150;17.142;2023-10-31T12:31:20;0.65;;;0.30;;
12308;SDS011;6217;48.150;17.142;2023-10-31T12:35:26;0.88;;;0.40;;
12308;SDS011;6217;48.150;17.142;2023-10-31T12:39:32;1.85;;;0.60;;
12308;SDS011;6217;48.150;17.142;2023-10-31T12:43:38;0.50;;;0.50;;
12308;SDS011;6217;48.150;17.142;2023-10-31T12:47:44;0.65;;;0.60;;
12308;SDS011;6217;48.150;17.142;2023-10-31T12:52:06;0.50;;;0.50;;
12308;SDS011;6217;48.150;17.142;2023-10-31T12:56:12;1.85;;;0.40;;
12308;SDS011;6217;48.150;17.142;2023-10-31T13:00:45;0.40;;;0.40;;
12308;SDS011;6217;48.150;17.142;2023-10-31T13:04:51;1.77;;;0.40;;
12308;SDS011;6217;48.150;17.142;2023-10-31T13:08:58;0.73;;;0.50;;
12308;SDS011;6217;48.150;17.142;2023-10-31T13:13:04;1.20;;;0.40;;
12308;SDS011;6217;48.150;17.142;2023-10-31T13:17:10;0.38;;;0.30;;
12308;SDS011;6217;48.150;17.142;2023-10-31T13:21:16;1.65;;;0.40;;
12308;SDS011;6217;48.150;17.142;2023-10-31T13:25:22;0.40;;;0.38;;
12308;SDS011;6217;48.150;17.142;2023-10-31T13:29:28;0.65;;;0.40;;
12308;SDS011;6217;48.150;17.142;2023-10-31T13:33:34;1.98;;;0.38;;
12308;SDS011;6217;48.150;17.142;2023-10-31T13:37:40;0.40;;;0.40;;
12308;SDS011;6217;48.150;17.142;2023-10-31T13:41:46;0.47;;;0.47;;
12308;SDS011;6217;48.150;17.142;2023-10-31T13:45:52;0.55;;;0.32;;
12308;SDS011;6217;48.150;17.142;2023-10-31T13:49:58;0.45;;;0.40;;
12308;SDS011;6217;48.150;17.142;2023-10-31T13:54:04;0.47;;;0.40;;
12308;SDS011;6217;48.150;17.142;2023-10-31T13:58:10;2.20;;;0.40;;
12308;SDS011;6217;48.150;17.142;2023-10-31T14:02:16;0.82;;;0.45;;
12308;SDS011;6217;48.150;17.142;2023-10-31T14:06:22;0.45;;;0.40;;
12308;SDS011;6217;48.150;17.142;2023-10-31T14:10:30;3.75;;;0.45;;
12308;SDS011;6217;48.150;17.142;2023-10-31T14:14:36;1.63;;;0.40;;
12308;SDS011;6217;48.150;17.142;2023-10-31T14:18:42;0.43;;;0.40;;
12308;SDS011;6217;48.150;17.142;2023-10-31T14:22:48;0.40;;;0.40;;
12308;SDS011;6217;48.150;17.142;2023-10-31T14:26:54;0.98;;;0.40;;
12308;SDS011;6217;48.150;17.142;2023-10-31T14:31:00;0.50;;;0.40;;
12308;SDS011;6217;48.150;17.142;2023-10-31T14:35:06;1.10;;;0.40;;
12308;SDS011;6217;48.150;17.142;2023-10-31T14:39:13;0.65;;;0.40;;
12308;SDS011;6217;48.150;17.142;2023-10-31T14:43:19;4.28;;;0.35;;
12308;SDS011;6217;48.150;17.142;2023-10-31T14:47:25;3.38;;;0.50;;
12308;SDS011;6217;48.150;17.142;2023-10-31T14:51:31;0.30;;;0.30;;
12308;SDS011;6217;48.150;17.142;2023-10-31T14:55:36;3.17;;;0.40;;
12308;SDS011;6217;48.150;17.142;2023-10-31T14:59:42;0.40;;;0.40;;
12308;SDS011;6217;48.150;17.142;2023-10-31T15:03:48;0.60;;;0.50;;
12308;SDS011;6217;48.150;17.142;2023-10-31T15:07:55;1.55;;;0.40;;
12308;SDS011;6217;48.150;17.142;2023-10-31T15:12:02;0.88;;;0.50;;
12308;SDS011;6217;48.150;17.142;2023-10-31T15:16:09;1.60;;;0.60;;
12308;SDS011;6217;48.150;17.142;2023-10-31T15:20:14;1.08;;;0.50;;
12308;SDS011;6217;48.150;17.142;2023-10-31T15:24:20;1.38;;;0.80;;
12308;SDS011;6217;48.150;17.142;2023-10-31T15:28:26;0.77;;;0.50;;
12308;SDS011;6217;48.150;17.142;2023-10-31T15:32:33;2.08;;;0.50;;
12308;SDS011;6217;48.150;17.142;2023-10-31T15:36:39;0.30;;;0.30;;
12308;SDS011;6217;48.150;17.142;2023-10-31T15:40:45;0.50;;;0.50;;
12308;SDS011;6217;48.150;17.142;2023-10-31T15:44:51;0.57;;;0.40;;
12308;SDS011;6217;48.150;17.142;2023-10-31T15:48:57;0.40;;;0.40;;
12308;SDS011;6217;48.150;17.142;2023-10-31T15:53:02;0.57;;;0.57;;
12308;SDS011;6217;48.150;17.142;2023-10-31T15:57:08;0.57;;;0.43;;
12308;SDS011;6217;48.150;17.142;2023-10-31T16:01:15;0.60;;;0.40;;
12308;SDS011;6217;48.150;17.142;2023-10-31T16:05:21;0.68;;;0.60;;
12308;SDS011;6217;48.150;17.142;2023-10-31T16:09:28;0.65;;;0.60;;
12308;SDS011;6217;48.150;17.142;2023-10-31T16:13:34;0.52;;;0.40;;
12308;SDS011;6217;48.150;17.142;2023-10-31T16:17:40;0.73;;;0.70;;
12308;SDS011;6217;48.150;17.142;2023-10-31T16:21:46;1.98;;;0.85;;
12308;SDS011;6217;48.150;17.142;2023-10-31T16:25:54;0.77;;;0.40;;
12308;SDS011;6217;48.150;17.142;2023-10-31T16:30:00;4.35;;;0.55;;
12308;SDS011;6217;48.150;17.142;2023-10-31T16:34:05;0.82;;;0.50;;
12308;SDS011;6217;48.150;17.142;2023-10-31T16:38:12;0.40;;;0.40;;
12308;SDS011;6217;48.150;17.142;2023-10-31T16:42:18;1.52;;;0.57;;
12308;SDS011;6217;48.150;17.142;2023-10-31T16:46:25;1.25;;;0.80;;
12308;SDS011;6217;48.150;17.142;2023-10-31T16:50:31;0.60;;;0.40;;
12308;SDS011;6217;48.150;17.142;2023-10-31T16:54:37;0.52;;;0.50;;
12308;SDS011;6217;48.150;17.142;2023-10-31T16:58:43;0.77;;;0.47;;
12308;SDS011;6217;48.150;17.142;2023-10-31T17:02:52;0.40;;;0.40;;
12308;SDS011;6217;48.150;17.142;2023-10-31T17:06:58;0.40;;;0.40;;
12308;SDS011;6217;48.150;17.142;2023-10-31T17:11:04;1.73;;;0.70;;
12308;SDS011;6217;48.150;17.142;2023-10-31T17:15:10;0.60;;;0.50;;
12308;SDS011;6217;48.150;17.142;2023-10-31T17:19:16;0.85;;;0.57;;
12308;SDS011;6217;48.150;17.142;2023-10-31T17:23:22;3.30;;;0.60;;
12308;SDS011;6217;48.150;17.142;2023-10-31T17:27:28;1.98;;;0.40;;
12308;SDS011;6217;48.150;17.142;2023-10-31T17:31:37;1.90;;;0.60;;
12308;SDS011;6217;48.150;17.142;2023-10-31T17:35:44;0.45;;;0.45;;
12308;SDS011;6217;48.150;17.142;2023-10-31T17:39:50;0.80;;;0.80;;
12308;SDS011;6217;48.150;17.142;2023-10-31T17:43:56;2.33;;;0.60;;
12308;SDS011;6217;48.150;17.142;2023-10-31T17:48:01;0.70;;;0.70;;
12308;SDS011;6217;48.150;17.142;2023-10-31T17:52:07;1.20;;;0.75;;
12308;SDS011;6217;48.150;17.142;2023-10-31T17:56:13;1.17;;;0.70;;
12308;SDS011;6217;48.150;17.142;2023-10-31T18:00:19;1.90;;;1.10;;
12308;SDS011;6217;48.150;17.142;2023-10-31T18:04:25;1.52;;;0.70;;
12308;SDS011;6217;48.150;17.142;2023-10-31T18:08:31;1.33;;;0.70;;
12308;SDS011;6217;48.150;17.142;2023-10-31T18:12:37;1.20;;;0.90;;
12308;SDS011;6217;48.150;17.142;2023-10-31T18:16:43;1.20;;;0.90;;
12308;SDS011;6217;48.150;17.142;2023-10-31T18:20:50;1.63;;;0.90;;
12308;SDS011;6217;48.150;17.142;2023-10-31T18:24:57;1.27;;;0.90;;
12308;SDS011;6217;48.150;17.142;2023-10-31T18:29:28;1.35;;;1.25;;
12308;SDS011;6217;48.150;17.142;2023-10-31T18:33:34;1.20;;;1.10;;
12308;SDS011;6217;48.150;17.142;2023-10-31T18:37:41;1.58;;;1.00;;
12308;SDS011;6217;48.150;17.142;2023-10-31T18:41:47;1.85;;;0.93;;
12308;SDS011;6217;48.150;17.142;2023-10-31T18:45:53;1.35;;;0.93;;
12308;SDS011;6217;48.150;17.142;2023-10-31T18:49:59;1.30;;;1.10;;
12308;SDS011;6217;48.150;17.142;2023-10-31T18:54:05;2.05;;;1.00;;
12308;SDS011;6217;48.150;17.142;2023-10-31T18:58:11;1.40;;;1.05;;
12308;SDS011;6217;48.150;17.142;2023-10-31T19:02:17;1.52;;;0.90;;
12308;SDS011;6217;48.150;17.142;2023-10-31T19:06:22;1.83;;;1.30;;
12308;SDS011;6217;48.150;17.142;2023-10-31T19:10:28;2.00;;;0.98;;
12308;SDS011;6217;48.150;17.142;2023-10-31T19:14:34;2.28;;;1.60;;
12308;SDS011;6217;48.150;17.142;2023-10-31T19:18:41;1.17;;;0.93;;
12308;SDS011;6217;48.150;17.142;2023-10-31T19:22:46;2.88;;;1.20;;
12308;SDS011;6217;48.150;17.142;2023-10-31T19:26:52;1.40;;;1.30;;
12308;SDS011;6217;48.150;17.142;2023-10-31T19:30:58;1.67;;;1.10;;
12308;SDS011;6217;48.150;17.142;2023-10-31T19:35:04;2.45;;;1.75;;
12308;SDS011;6217;48.150;17.142;2023-10-31T19:39:12;1.33;;;1.00;;
12308;SDS011;6217;48.150;17.142;2023-10-31T19:43:18;3.20;;;1.25;;
12308;SDS011;6217;48.150;17.142;2023-10-31T19:47:24;1.65;;;1.10;;
12308;SDS011;6217;48.150;17.142;2023-10-31T19:51:30;3.75;;;1.20;;
12308;SDS011;6217;48.150;17.142;2023-10-31T19:55:36;3.55;;;1.52;;
12308;SDS011;6217;48.150;17.142;2023-10-31T19:59:42;2.83;;;1.70;;
12308;SDS011;6217;48.150;17.142;2023-10-31T20:03:48;5.90;;;1.30;;
12308;SDS011;6217;48.150;17.142;2023-10-31T20:07:54;1.75;;;1.20;;
12308;SDS011;6217;48.150;17.142;2023-10-31T20:12:00;1.38;;;1.02;;
12308;SDS011;6217;48.150;17.142;2023-10-31T20:16:08;3.85;;;1.23;;
12308;SDS011;6217;48.150;17.142;2023-10-31T20:20:14;2.75;;;1.80;;
12308;SDS011;6217;48.150;17.142;2023-10-31T20:24:20;1.58;;;1.10;;
12308;SDS011;6217;48.150;17.142;2023-10-31T20:28:26;1.55;;;1.13;;
12308;SDS011;6217;48.150;17.142;2023-10-31T20:32:32;2.38;;;0.88;;
12308;SDS011;6217;48.150;17.142;2023-10-31T20:36:41;1.58;;;1.10;;
12308;SDS011;6217;48.150;17.142;2023-10-31T20:40:48;1.33;;;0.90;;
12308;SDS011;6217;48.150;17.142;2023-10-31T20:44:54;2.50;;;1.00;;
12308;SDS011;6217;48.150;17.142;2023-10-31T20:49:00;4.43;;;1.17;;
12308;SDS011;6217;48.150;17.142;2023-10-31T20:53:06;1.95;;;0.90;;
12308;SDS011;6217;48.150;17.142;2023-10-31T20:57:12;1.45;;;0.95;;
12308;SDS011;6217;48.150;17.142;2023-10-31T21:01:17;4.10;;;1.63;;
12308;SDS011;6217;48.150;17.142;2023-10-31T21:05:23;1.27;;;1.00;;
12308;SDS011;6217;48.150;17.142;2023-10-31T21:09:29;0.93;;;0.90;;
12308;SDS011;6217;48.150;17.142;2023-10-31T21:13:35;0.80;;;0.80;;
12308;SDS011;6217;48.150;17.142;2023-10-31T21:17:41;1.98;;;0.90;;
12308;SDS011;6217;48.150;17.142;2023-10-31T21:21:47;2.05;;;1.50;;
12308;SDS011;6217;48.150;17.142;2023-10-31T21:25:53;1.63;;;1.00;;
12308;SDS011;6217;48.150;17.142;2023-10-31T21:30:02;1.88;;;0.85;;
12308;SDS011;6217;48.150;17.142;2023-10-31T21:34:09;1.50;;;0.80;;
12308;SDS011;6217;48.150;17.142;2023-10-31T21:38:15;3.10;;;0.90;;
12308;SDS011;6217;48.150;17.142;2023-10-31T21:42:22;1.27;;;1.15;;
12308;SDS011;6217;48.150;17.142;2023-10-31T21:46:28;1.20;;;1.00;;
12308;SDS011;6217;48.150;17.142;2023-10-31T21:50:34;3.45;;;1.80;;
12308;SDS011;6217;48.150;17.142;2023-10-31T21:54:40;2.97;;;1.02;;
12308;SDS011;6217;48.150;17.142;2023-10-31T21:58:46;3.22;;;0.70;;
12308;SDS011;6217;48.150;17.142;2023-10-31T22:02:52;3.00;;;1.58;;
12308;SDS011;6217;48.150;17.142;2023-10-31T22:06:58;2.95;;;0.70;;
12308;SDS011;6217;48.150;17.142;2023-10-31T22:11:03;1.25;;;0.90;;
12308;SDS011;6217;48.150;17.142;2023-10-31T22:15:10;2.17;;;0.70;;
12308;SDS011;6217;48.150;17.142;2023-10-31T22:19:15;1.35;;;0.90;;
12308;SDS011;6217;48.150;17.142;2023-10-31T22:23:21;3.00;;;1.10;;
12308;SDS011;6217;48.150;17.142;2023-10-31T22:27:28;1.13;;;1.02;;
12308;SDS011;6217;48.150;17.142;2023-10-31T22:31:34;1.60;;;1.08;;
12308;SDS011;6217;48.150;17.142;2023-10-31T22:35:41;1.58;;;0.93;;
12308;SDS011;6217;48.150;17.142;2023-10-31T22:39:47;0.93;;;0.70;;
12308;SDS011;6217;48.150;17.142;2023-10-31T22:43:53;3.35;;;0.75;;
12308;SDS011;6217;48.150;17.142;2023-10-31T22:47:59;1.08;;;0.90;;
12308;SDS011;6217;48.150;17.142;2023-10-31T22:52:04;3.05;;;0.73;;
12308;SDS011;6217;48.150;17.142;2023-10-31T22:56:10;2.28;;;0.98;;
12308;SDS011;6217;48.150;17.142;2023-10-31T23:00:17;2.70;;;0.80;;
12308;SDS011;6217;48.150;17.142;2023-10-31T23:04:41;2.80;;;1.00;;
12308;SDS011;6217;48.150;17.142;2023-10-31T23:08:47;3.05;;;0.90;;
12308;SDS011;6217;48.150;17.142;2023-10-31T23:12:53;3.58;;;1.00;;
12308;SDS011;6217;48.150;17.142;2023-10-31T23:17:00;0.93;;;0.70;;
12308;SDS011;6217;48.150;17.142;2023-10-31T23:21:06;1.90;;;1.73;;
12308;SDS011;6217;48.150;17.142;2023-10-31T23:25:12;8.13;;;0.75;;
12308;SDS011;6217;48.150;17.142;2023-10-31T23:29:19;2.28;;;0.80;;
12308;SDS011;6217;48.150;17.142;2023-10-31T23:33:25;5.10;;;1.50;;
12308;SDS011;6217;48.150;17.142;2023-10-31T23:37:31;2.60;;;1.00;;
12308;SDS011;6217;48.150;17.142;2023-10-31T23:41:37;2.03;;;1.00;;
12308;SDS011;6217;48.150;17.142;2023-10-31T23:45:43;2.50;;;1.20;;
12308;SDS011;6217;48.150;17.142;2023-10-31T23:49:49;1.67;;;1.20;;
12308;SDS011;6217;48.150;17.142;2023-10-31T23:53:56;3.00;;;1.35;;
12308;SDS011;6217;48.150;17.142;2023-10-31T23:58:01;1.75;;;1.17;;
